Time;durP1;ratioP1;P1;durP2;ratioP2;P2;SDS_P1;SDS_P2;PMS_P1;PMS_P2;Temp;Humidity;BMP_temperature;BMP_pressure;BME280_temperature;BME280_humidity;BME280_pressure;Samples;Min_cycle;Max_cycle;Signal;HPM_P1;HPM_P2
2022/07/15 00:02:05;;;;;;;3.60;1.70;;;;;;;25.66;43.93;98770.81;5073084;28;20024;-50
2022/07/15 00:04:31;;;;;;;4.53;2.20;;;;;;;25.96;43.56;98772.16;5073118;28;20048;-49
2022/07/15 00:06:57;;;;;;;10.77;2.78;;;;;;;26.40;42.99;98770.69;5073114;28;20025;-48
2022/07/15 00:10:13;;;;;;;9.85;2.10;;;;;;;26.92;42.24;98767.63;5055098;28;20021;-49
2022/07/15 00:12:09;;;;;;;3.35;2.33;;;;;;;27.41;41.06;98765.91;5072700;28;20033;-49
2022/07/15 00:14:35;;;;;;;6.30;2.40;;;;;;;27.58;40.41;98769.78;5073150;28;20040;-49
2022/07/15 00:17:01;;;;;;;4.13;2.42;;;;;;;27.48;40.67;98768.16;5072872;28;20021;-50
2022/07/15 00:19:27;;;;;;;4.43;1.73;;;;;;;27.41;39.82;98770.50;5072581;28;20045;-49
2022/07/15 00:21:53;;;;;;;5.70;2.20;;;;;;;27.15;40.49;98760.34;5072665;28;20095;-50
2022/07/15 00:24:18;;;;;;;3.10;1.67;;;;;;;27.05;40.65;98764.09;5072676;28;20099;-49
2022/07/15 00:26:44;;;;;;;2.47;1.80;;;;;;;26.77;41.02;98768.78;5054645;28;20443;-49
2022/07/15 00:29:10;;;;;;;6.03;2.30;;;;;;;26.48;41.13;98761.88;5072659;28;20028;-50
2022/07/15 00:31:36;;;;;;;8.88;3.05;;;;;;;26.48;41.97;98767.28;5054645;28;20405;-49
2022/07/15 00:34:03;;;;;;;8.30;1.70;;;;;;;26.72;41.56;98760.03;5054571;28;20028;-49
2022/07/15 00:36:29;;;;;;;7.15;1.77;;;;;;;26.58;41.34;98757.38;5072483;28;20021;-50
2022/07/15 00:38:54;;;;;;;8.05;2.30;;;;;;;26.45;41.84;98762.47;5072545;28;20078;-49
2022/07/15 00:41:20;;;;;;;6.80;2.28;;;;;;;26.60;41.58;98760.56;5072434;28;20020;-49
2022/07/15 00:43:46;;;;;;;3.88;1.65;;;;;;;26.43;42.07;98763.91;5053622;28;20063;-50
2022/07/15 00:46:19;;;;;;;2.40;1.88;;;;;;;26.25;42.24;98761.03;5054373;28;20489;-49
2022/07/15 00:48:45;;;;;;;8.45;2.53;;;;;;;26.05;42.88;98769.53;5054345;28;20031;-49
2022/07/15 00:51:11;;;;;;;9.73;1.73;;;;;;;25.94;43.10;98778.91;5072215;28;20040;-50
2022/07/15 00:53:39;;;;;;;5.15;2.30;;;;;;;25.87;43.23;98768.53;5054214;28;20024;-49
2022/07/15 00:56:09;;;;;;;4.90;2.40;;;;;;;25.91;43.63;98772.22;5072186;28;20103;-49
2022/07/15 00:58:42;;;;;;;4.10;1.88;;;;;;;25.97;43.63;98764.88;5054219;28;20040;-50
2022/07/15 01:01:08;;;;;;;4.20;1.83;;;;;;;26.06;43.21;98771.16;5072193;28;20094;-47
2022/07/15 01:03:34;;;;;;;7.75;2.97;;;;;;;26.16;45.34;98762.03;5054016;28;20486;-48
2022/07/15 01:06:01;;;;;;;5.72;2.75;;;;;;;26.22;46.86;98756.28;5072042;28;20044;-48
2022/07/15 01:08:27;;;;;;;5.55;2.00;;;;;;;26.07;45.92;98764.66;5071986;28;20024;-47
2022/07/15 01:10:52;;;;;;;12.55;2.75;;;;;;;25.96;48.19;98763.25;5071993;28;20024;-47
2022/07/15 01:13:20;;;;;;;15.23;3.25;;;;;;;25.66;49.95;98754.69;5071969;28;20064;-48
2022/07/15 01:15:46;;;;;;;5.78;2.35;;;;;;;25.30;50.32;98760.72;5071826;28;20024;-47
2022/07/15 01:18:12;;;;;;;10.43;2.50;;;;;;;25.14;50.87;98757.47;5071613;28;20353;-49
2022/07/15 01:20:43;;;;;;;10.02;5.60;;;;;;;25.11;50.80;98750.78;5053819;28;20024;-49
2022/07/15 01:23:09;;;;;;;4.07;2.78;;;;;;;25.34;49.66;98758.22;5071705;28;20393;-49
2022/07/15 01:25:35;;;;;;;11.18;3.17;;;;;;;25.62;48.07;98749.09;5071789;28;20027;-49
2022/07/15 01:28:05;;;;;;;6.25;3.38;;;;;;;25.88;46.20;98754.00;5071800;28;20481;-48
2022/07/15 01:30:31;;;;;;;8.20;3.85;;;;;;;26.11;45.08;98746.81;5071740;28;20029;-50
2022/07/15 01:32:57;;;;;;;11.25;3.45;;;;;;;26.32;47.77;98763.34;5071797;28;20028;-49
2022/07/15 01:35:22;;;;;;;4.88;2.70;;;;;;;25.75;47.83;98760.16;5071621;28;20025;-49
2022/07/15 01:37:48;;;;;;;7.70;2.63;;;;;;;24.70;51.26;98766.75;5071695;28;20096;-49
2022/07/15 01:40:14;;;;;;;4.65;2.17;;;;;;;23.73;53.56;98769.53;5071914;28;20115;-49
2022/07/15 01:42:40;;;;;;;14.48;3.35;;;;;;;22.96;56.39;98771.28;5071540;28;20568;-48
2022/07/15 01:45:07;;;;;;;4.70;2.30;;;;;;;22.42;57.96;98770.31;5071635;28;20396;-48
2022/07/15 01:47:32;;;;;;;14.98;4.60;;;;;;;22.26;59.47;98766.91;5053595;28;20024;-48
2022/07/15 01:49:59;;;;;;;4.25;2.08;;;;;;;22.39;59.12;98770.84;5053511;28;20021;-47
2022/07/15 01:52:25;;;;;;;6.10;2.40;;;;;;;22.47;56.67;98759.56;5071544;28;20064;-49
2022/07/15 01:54:51;;;;;;;6.50;2.40;;;;;;;22.44;57.26;98770.84;5054676;28;20074;-49
2022/07/15 01:57:18;;;;;;;5.85;2.75;;;;;;;22.79;57.02;98764.44;5075552;28;20068;-49
2022/07/15 01:59:43;;;;;;;6.07;2.40;;;;;;;23.08;55.50;98763.72;5075539;28;20147;-48
2022/07/15 02:02:09;;;;;;;5.68;2.08;;;;;;;23.22;54.74;98764.69;5075372;28;20118;-48
2022/07/15 02:04:36;;;;;;;6.20;2.10;;;;;;;23.38;54.05;98761.84;5075465;28;20031;-49
2022/07/15 02:07:04;;;;;;;9.02;2.42;;;;;;;23.48;54.05;98759.88;5075277;28;20036;-49
2022/07/15 02:09:30;;;;;;;2.95;1.98;;;;;;;23.57;53.56;98764.63;5075375;28;20497;-49
2022/07/15 02:11:55;;;;;;;4.07;2.10;;;;;;;23.80;52.50;98763.06;5057335;28;20028;-49
2022/07/15 02:14:21;;;;;;;10.27;2.80;;;;;;;24.05;52.26;98757.41;5075194;28;20067;-48
2022/07/15 02:16:47;;;;;;;3.72;2.15;;;;;;;24.30;51.12;98756.25;5057221;28;20054;-48
2022/07/15 02:19:13;;;;;;;8.05;2.50;;;;;;;24.49;50.31;98760.84;5043768;28;20064;-48
2022/07/15 02:21:38;;;;;;;9.07;2.40;;;;;;;24.75;50.11;98764.00;5037119;28;20039;-48
2022/07/15 02:24:05;;;;;;;5.13;2.70;;;;;;;25.03;49.23;98756.84;5037044;28;20025;-49
2022/07/15 02:26:30;;;;;;;8.73;2.58;;;;;;;25.19;48.72;98767.31;5037065;28;20025;-49
2022/07/15 02:28:56;;;;;;;6.05;2.50;;;;;;;25.38;48.28;98769.97;5054989;28;20098;-49
2022/07/15 02:31:22;;;;;;;14.07;2.85;;;;;;;25.59;47.58;98760.44;5054949;28;20027;-49
2022/07/15 02:33:48;;;;;;;5.78;2.10;;;;;;;25.62;46.94;98764.44;5054956;28;20486;-49
2022/07/15 02:36:14;;;;;;;10.15;3.10;;;;;;;25.55;46.76;98772.88;5054816;28;20017;-49
2022/07/15 02:38:40;;;;;;;6.93;2.90;;;;;;;25.65;46.48;98772.69;5037170;28;20058;-49
2022/07/15 02:41:07;;;;;;;6.40;2.40;;;;;;;25.85;45.92;98776.88;5054794;28;20074;-49
2022/07/15 02:43:34;;;;;;;7.80;2.63;;;;;;;26.04;45.28;98776.81;5054659;28;20029;-49
2022/07/15 02:45:59;;;;;;;7.90;3.03;;;;;;;26.23;45.12;98773.19;5054567;28;20062;-49
2022/07/15 02:48:25;;;;;;;7.00;2.50;;;;;;;26.28;44.33;98771.19;5054657;28;20103;-49
2022/07/15 02:50:51;;;;;;;4.53;2.13;;;;;;;26.39;44.15;98769.06;5054513;28;20100;-49
2022/07/15 02:53:18;;;;;;;6.03;2.20;;;;;;;26.51;43.93;98765.88;5036518;28;20039;-49
2022/07/15 02:55:44;;;;;;;8.65;3.00;;;;;;;26.59;43.41;98761.69;5054460;28;20021;-49
2022/07/15 02:58:10;;;;;;;8.02;2.67;;;;;;;26.60;43.64;98760.56;5054428;28;20072;-49
2022/07/15 03:00:36;;;;;;;5.95;2.40;;;;;;;26.59;43.09;98764.38;5054378;28;20041;-48
2022/07/15 03:03:02;;;;;;;5.60;2.38;;;;;;;26.48;43.24;98759.19;5054291;28;20033;-50
2022/07/15 03:05:28;;;;;;;14.90;3.13;;;;;;;26.41;43.22;98760.72;5054230;28;20021;-49
2022/07/15 03:07:53;;;;;;;7.85;2.20;;;;;;;26.32;43.64;98763.34;5035441;28;20035;-49
2022/07/15 03:10:19;;;;;;;11.65;2.65;;;;;;;26.27;43.30;98758.06;5054206;28;20036;-49
2022/07/15 03:12:45;;;;;;;6.35;2.55;;;;;;;26.27;43.64;98763.44;5054224;28;20036;-49
2022/07/15 03:15:13;;;;;;;7.18;2.60;;;;;;;26.26;43.59;98764.53;5036166;28;20052;-50
2022/07/15 03:17:40;;;;;;;10.90;3.35;;;;;;;26.33;43.46;98764.91;5053994;28;20043;-49
2022/07/15 03:20:07;;;;;;;5.03;2.65;;;;;;;26.35;43.34;98761.91;5074020;28;20016;-49
2022/07/15 03:22:33;;;;;;;9.55;3.40;;;;;;;26.34;43.31;98757.63;5055995;28;20405;-49
2022/07/15 03:24:59;;;;;;;7.47;2.70;;;;;;;26.18;43.60;98766.03;5073927;28;20146;-49
2022/07/15 03:27:26;;;;;;;4.93;2.70;;;;;;;26.08;43.53;98775.13;5055807;28;20036;-50
2022/07/15 03:29:51;;;;;;;7.63;3.63;;;;;;;25.83;43.74;98772.91;5073936;28;20075;-50
2022/07/15 03:32:20;;;;;;;5.72;2.22;;;;;;;25.39;44.16;98771.56;5055760;28;20025;-49
2022/07/15 03:34:48;;;;;;;6.22;2.45;;;;;;;24.96;44.94;98790.53;5073819;28;20016;-49
2022/07/15 03:37:14;;;;;;;7.28;3.08;;;;;;;24.82;45.64;98785.88;5073635;28;20032;-49
2022/07/15 03:39:40;;;;;;;8.00;2.40;;;;;;;24.79;45.92;98783.78;5073727;28;20024;-50
2022/07/15 03:42:06;;;;;;;6.22;2.40;;;;;;;24.69;45.86;98787.41;5073490;28;20103;-49
2022/07/15 03:44:31;;;;;;;6.97;2.30;;;;;;;24.74;45.91;98791.91;5073586;28;20040;-49
2022/07/15 03:46:57;;;;;;;8.65;2.88;;;;;;;24.77;45.83;98790.53;5073549;28;20063;-48
2022/07/15 03:49:23;;;;;;;10.52;2.83;;;;;;;24.89;46.33;98794.38;5055389;28;20090;-47
2022/07/15 03:51:48;;;;;;;6.47;2.30;;;;;;;25.00;45.57;98786.16;5073411;28;20024;-48
2022/07/15 03:54:14;;;;;;;10.73;3.55;;;;;;;25.02;45.88;98797.41;5055482;28;20048;-47
2022/07/15 03:56:40;;;;;;;5.90;2.75;;;;;;;25.11;45.52;98798.31;5055314;28;20024;-47
2022/07/15 03:59:06;;;;;;;11.20;3.15;;;;;;;25.11;45.82;98793.75;5073261;28;20020;-47
2022/07/15 04:01:33;;;;;;;7.28;2.88;;;;;;;25.28;45.67;98797.81;5055363;28;20031;-49
2022/07/15 04:03:59;;;;;;;9.70;3.42;;;;;;;25.46;45.37;98790.78;5073093;28;20021;-49
2022/07/15 04:06:25;;;;;;;11.05;3.50;;;;;;;25.54;45.03;98795.50;5073154;28;20056;-48
2022/07/15 04:08:52;;;;;;;7.10;2.33;;;;;;;25.57;44.82;98802.16;5073154;28;20055;-49
2022/07/15 04:11:18;;;;;;;6.00;2.88;;;;;;;25.61;44.70;98797.78;5073099;28;20551;-49
2022/07/15 04:13:45;;;;;;;13.07;3.47;;;;;;;25.78;45.08;98789.16;5055125;28;20025;-49
2022/07/15 04:16:13;;;;;;;11.05;3.30;;;;;;;25.93;44.41;98796.94;5072937;28;20024;-49
2022/07/15 04:18:39;;;;;;;5.03;2.85;;;;;;;26.03;44.22;98795.94;5046244;28;20052;-49
2022/07/15 04:21:05;;;;;;;9.68;3.20;;;;;;;26.08;44.19;98799.31;5034919;28;20515;-49
2022/07/15 04:23:31;;;;;;;6.30;3.60;;;;;;;26.08;43.83;98799.31;5034888;28;20131;-50
2022/07/15 04:25:57;;;;;;;5.93;2.95;;;;;;;26.16;43.54;98800.53;5034919;28;20570;-49
2022/07/15 04:28:24;;;;;;;10.13;3.10;;;;;;;26.08;43.39;98793.94;5034837;28;20021;-49
2022/07/15 04:30:51;;;;;;;7.93;3.15;;;;;;;26.00;43.61;98805.41;5052685;28;20017;-49
2022/07/15 04:33:16;;;;;;;6.70;2.90;;;;;;;25.98;43.48;98791.47;5052677;28;20133;-49
2022/07/15 04:35:42;;;;;;;11.15;3.35;;;;;;;26.04;44.12;98801.03;5052616;28;20100;-50
2022/07/15 04:38:08;;;;;;;10.25;3.28;;;;;;;26.54;42.93;98794.06;5034628;28;20136;-49
2022/07/15 04:40:35;;;;;;;17.10;3.78;;;;;;;27.26;41.54;98785.16;5034639;28;20033;-49
2022/07/15 04:43:01;;;;;;;9.07;3.10;;;;;;;27.93;39.49;98791.50;5034543;28;20040;-49
2022/07/15 04:45:28;;;;;;;17.75;3.55;;;;;;;28.41;39.00;98796.06;5034538;28;20375;-49
2022/07/15 04:47:54;;;;;;;39.38;5.40;;;;;;;28.78;37.52;98799.31;5034502;28;20032;-49
2022/07/15 04:53:05;;;;;;;10.68;3.05;;;;;;;29.37;36.43;98804.97;5052629;28;20040;-49
2022/07/15 04:55:31;;;;;;;10.52;3.38;;;;;;;29.43;36.21;98802.88;5034265;28;20402;-48
2022/07/15 04:57:57;;;;;;;6.75;2.90;;;;;;;29.45;36.57;98804.13;5052278;28;20067;-49
2022/07/15 05:00:23;;;;;;;13.48;3.10;;;;;;;29.65;35.91;98808.06;5052161;28;20103;-49
2022/07/15 05:02:49;;;;;;;20.55;4.10;;;;;;;29.95;35.87;98807.34;5034153;28;20032;-49
2022/07/15 05:05:15;;;;;;;18.55;3.92;;;;;;;30.57;35.03;98803.94;5052085;28;20242;-50
2022/07/15 05:07:40;;;;;;;38.00;5.18;;;;;;;31.38;33.42;98798.28;5051957;28;20036;-49
2022/07/15 05:10:08;;;;;;;18.33;3.92;;;;;;;32.27;32.36;98802.31;5051992;28;20092;-49
2022/07/15 05:12:35;;;;;;;14.02;2.45;;;;;;;32.92;30.23;98791.41;5052003;28;20032;-49
2022/07/15 05:15:01;;;;;;;16.88;3.63;;;;;;;33.42;29.52;98790.00;5033980;28;20540;-48
2022/07/15 05:17:27;;;;;;;15.50;3.35;;;;;;;33.88;28.98;98797.78;5051940;28;20076;-49
2022/07/15 05:19:53;;;;;;;29.90;4.13;;;;;;;34.39;28.71;98798.56;5067696;28;20533;-49
2022/07/15 05:22:19;;;;;;;24.00;4.45;;;;;;;34.86;28.14;98796.03;5071746;28;20028;-50
2022/07/15 05:24:45;;;;;;;12.35;3.45;;;;;;;35.20;27.38;98802.53;5071881;28;20028;-50
2022/07/15 05:27:11;;;;;;;15.20;2.85;;;;;;;35.43;26.55;98799.03;5070290;28;20020;-49
2022/07/15 05:29:37;;;;;;;15.27;3.50;;;;;;;35.70;26.17;98797.94;5070086;28;20173;-49
2022/07/15 05:32:03;;;;;;;12.95;2.65;;;;;;;35.93;25.66;98802.59;5071752;28;20104;-48
2022/07/15 05:34:28;;;;;;;12.23;2.95;;;;;;;35.84;25.52;98797.41;5070317;28;20020;-48
2022/07/15 05:36:54;;;;;;;13.15;3.20;;;;;;;36.14;25.42;98804.81;5069959;28;20082;-48
2022/07/15 05:39:20;;;;;;;15.95;3.90;;;;;;;36.25;25.00;98810.50;5070184;28;20024;-49
2022/07/15 05:41:46;;;;;;;14.10;3.05;;;;;;;35.70;25.27;98808.06;5071692;28;20211;-49
2022/07/15 05:44:12;;;;;;;9.23;2.20;;;;;;;35.31;25.78;98814.41;5070311;28;20479;-47
2022/07/15 05:46:37;;;;;;;7.72;2.60;;;;;;;35.15;26.06;98811.78;5071509;28;20027;-49
2022/07/15 05:49:03;;;;;;;16.33;2.97;;;;;;;35.05;25.91;98806.91;5070087;28;20028;-49
2022/07/15 05:51:30;;;;;;;6.57;3.22;;;;;;;35.07;26.15;98814.72;5071630;28;20143;-49
2022/07/15 05:53:56;;;;;;;11.75;2.50;;;;;;;35.70;25.43;98803.41;5071602;28;20082;-50
2022/07/15 05:56:21;;;;;;;5.60;2.22;;;;;;;36.28;24.67;98810.53;5071525;28;20029;-49
2022/07/15 05:58:48;;;;;;;19.75;2.75;;;;;;;36.79;23.79;98807.28;5071565;28;20482;-50
2022/07/15 06:01:14;;;;;;;22.08;3.40;;;;;;;37.05;23.33;98808.38;5071506;28;20024;-48
2022/07/15 06:03:39;;;;;;;16.67;3.60;;;;;;;37.40;23.50;98809.91;5070107;28;20440;-49
2022/07/15 06:06:08;;;;;;;13.35;2.78;;;;;;;37.71;22.80;98811.38;5071408;28;20044;-49
2022/07/15 06:08:35;;;;;;;12.85;2.90;;;;;;;38.05;22.48;98804.94;5071482;28;20059;-50
2022/07/15 06:11:01;;;;;;;12.30;2.85;;;;;;;38.13;22.03;98814.78;5069959;28;20035;-50
2022/07/15 06:13:27;;;;;;;15.23;2.50;;;;;;;38.41;21.58;98822.38;5071388;28;20044;-48
2022/07/15 06:15:53;;;;;;;21.38;3.13;;;;;;;38.70;21.91;98820.59;5071330;28;20519;-49
2022/07/15 06:18:18;;;;;;;11.18;2.92;;;;;;;38.89;21.38;98821.44;5071002;28;20044;-49
2022/07/15 06:20:44;;;;;;;3.55;2.03;;;;;;;38.58;21.12;98829.16;5071274;28;20025;-47
2022/07/15 06:23:10;;;;;;;8.80;2.55;;;;;;;38.68;21.39;98822.94;5071227;28;20024;-46
2022/07/15 06:25:36;;;;;;;8.13;3.15;;;;;;;39.19;20.90;98823.88;5069755;28;20047;-49
2022/07/15 06:28:02;;;;;;;11.20;2.85;;;;;;;39.33;20.36;98820.38;5069873;28;20170;-49
2022/07/15 06:30:29;;;;;;;27.52;4.68;;;;;;;39.38;20.58;98827.44;5071231;28;20170;-48
2022/07/15 06:32:54;;;;;;;12.75;3.30;;;;;;;39.64;20.41;98826.31;5069739;28;20124;-49
2022/07/15 06:35:20;;;;;;;14.60;3.35;;;;;;;40.10;20.18;98820.78;5069788;28;20111;-48
2022/07/15 06:37:46;;;;;;;16.30;2.70;;;;;;;40.47;19.79;98824.25;5071092;28;20016;-50
2022/07/15 06:40:12;;;;;;;19.02;3.70;;;;;;;40.60;20.11;98830.88;5071104;28;20028;-51
2022/07/15 06:42:38;;;;;;;16.50;3.05;;;;;;;41.01;19.37;98827.56;5073197;28;20021;-50
2022/07/15 06:45:05;;;;;;;31.08;4.50;;;;;;;41.13;18.76;98831.78;5074664;28;20025;-49
2022/07/15 06:47:31;;;;;;;13.18;3.42;;;;;;;41.01;19.43;98826.75;5074597;28;20039;-49
2022/07/15 06:49:57;;;;;;;5.90;2.00;;;;;;;40.40;19.83;98822.28;5074471;28;20029;-48
2022/07/15 06:52:23;;;;;;;12.52;2.78;;;;;;;40.47;19.76;98830.53;5074511;28;20023;-49
2022/07/15 06:54:48;;;;;;;16.45;3.05;;;;;;;40.31;19.85;98822.72;5074477;28;20033;-49
2022/07/15 06:57:16;;;;;;;14.38;2.38;;;;;;;40.44;20.10;98823.06;5074449;28;20013;-49
2022/07/15 06:59:43;;;;;;;7.00;2.50;;;;;;;40.87;19.39;98835.88;5074330;28;20024;-51
2022/07/15 07:02:09;;;;;;;18.63;4.45;;;;;;;41.08;19.50;98824.75;5074256;28;20501;-50
2022/07/15 07:04:34;;;;;;;13.02;3.30;;;;;;;41.77;18.62;98835.31;5072981;28;20123;-50
2022/07/15 07:07:00;;;;;;;10.48;3.55;;;;;;;41.85;18.60;98825.78;5072899;28;20448;-50
2022/07/15 07:09:26;;;;;;;12.52;3.85;;;;;;;41.76;18.83;98833.75;5074279;28;20108;-49
2022/07/15 07:11:52;;;;;;;10.10;3.47;;;;;;;41.66;18.75;98833.44;5074217;28;20135;-49
2022/07/15 07:14:18;;;;;;;8.43;2.35;;;;;;;41.58;18.68;98834.66;5072775;28;20089;-49
2022/07/15 07:16:47;;;;;;;8.82;2.67;;;;;;;41.70;18.63;98836.94;5074116;28;20023;-50
2022/07/15 07:19:13;;;;;;;12.70;2.45;;;;;;;42.31;18.08;98832.81;5073833;28;20082;-49
2022/07/15 07:21:39;;;;;;;6.95;2.30;;;;;;;42.59;17.66;98830.94;5074046;28;20077;-48
2022/07/15 07:24:07;;;;;;;10.40;3.28;;;;;;;42.59;17.42;98839.22;5073811;28;20024;-49
2022/07/15 07:26:33;;;;;;;10.95;3.05;;;;;;;42.29;17.83;98835.22;5074141;28;20021;-49
2022/07/15 07:28:59;;;;;;;13.00;3.03;;;;;;;42.05;18.33;98837.81;5074182;28;20032;-50
2022/07/15 07:31:26;;;;;;;13.98;2.95;;;;;;;41.70;18.60;98844.44;5073852;28;20359;-49
2022/07/15 07:33:56;;;;;;;6.35;2.53;;;;;;;41.19;19.16;98837.69;5074053;28;20464;-49
2022/07/15 07:36:23;;;;;;;11.77;3.42;;;;;;;40.71;19.61;98850.88;5073763;28;20031;-49
2022/07/15 07:38:49;;;;;;;17.65;5.35;;;;;;;40.58;20.10;98849.75;5072278;28;20032;-49
2022/07/15 07:41:15;;;;;;;2.53;1.90;;;;;;;40.31;19.97;98852.19;5073642;28;20036;-49
2022/07/15 07:43:41;;;;;;;12.27;4.50;;;;;;;39.72;21.19;98853.41;5072194;28;20107;-49
2022/07/15 07:46:11;;;;;;;8.80;2.95;;;;;;;39.72;20.51;98844.34;5072025;28;20119;-49
2022/07/15 07:48:38;;;;;;;5.75;2.13;;;;;;;39.89;20.33;98846.34;5073524;28;20017;-49
2022/07/15 07:51:05;;;;;;;12.52;3.25;;;;;;;39.73;20.45;98841.22;5073628;28;20161;-49
2022/07/15 07:53:31;;;;;;;7.97;2.80;;;;;;;39.78;20.88;98842.78;5073107;28;20028;-47
2022/07/15 07:55:56;;;;;;;5.88;2.42;;;;;;;40.07;20.20;98840.03;5073331;28;20047;-49
2022/07/15 07:58:22;;;;;;;6.70;2.42;;;;;;;40.54;20.16;98837.97;5073310;28;20040;-49
2022/07/15 08:00:48;;;;;;;11.02;2.78;;;;;;;40.89;19.54;98834.31;5071633;28;20501;-50
2022/07/15 08:03:15;;;;;;;12.82;3.17;;;;;;;41.39;19.37;98838.72;5073188;28;20107;-49
2022/07/15 08:05:41;;;;;;;6.15;2.80;;;;;;;42.12;18.22;98831.47;5073105;28;20544;-49
2022/07/15 08:08:13;;;;;;;15.18;3.80;;;;;;;42.65;17.97;98829.28;5073196;28;20136;-48
2022/07/15 08:10:40;;;;;;;8.15;3.13;;;;;;;43.22;17.34;98836.03;5073187;28;20489;-49
2022/07/15 08:13:06;;;;;;;7.45;2.97;;;;;;;43.72;17.36;98837.25;5071724;28;20040;-50
2022/07/15 08:15:32;;;;;;;7.18;2.28;;;;;;;44.05;16.94;98832.69;5072888;28;20024;-49
2022/07/15 08:17:58;;;;;;;7.75;2.30;;;;;;;44.17;16.81;98823.81;5072658;28;21168;-49
2022/07/15 08:20:24;;;;;;;7.00;1.75;;;;;;;44.60;16.29;98825.75;5071523;28;20062;-50
2022/07/15 08:22:57;;;;;;;10.55;2.33;;;;;;;44.90;15.64;98815.63;5072768;28;20516;-49
2022/07/15 08:25:28;;;;;;;14.82;3.10;;;;;;;44.97;15.89;98818.22;5072825;28;20020;-49
2022/07/15 08:27:56;;;;;;;13.07;2.38;;;;;;;45.00;15.37;98822.91;5072767;28;20029;-48
2022/07/15 08:30:22;;;;;;;5.30;2.05;;;;;;;45.54;15.50;98820.84;5072910;28;20079;-50
2022/07/15 08:32:48;;;;;;;11.65;2.38;;;;;;;46.08;14.73;98823.06;5071219;28;20039;-50
2022/07/15 08:35:14;;;;;;;13.73;2.97;;;;;;;46.00;15.22;98821.66;5071174;28;20025;-48
2022/07/15 08:37:39;;;;;;;7.10;2.08;;;;;;;46.26;14.92;98821.78;5072519;28;20024;-49
2022/07/15 08:40:08;;;;;;;11.73;2.30;;;;;;;46.66;14.58;98821.44;5072495;28;20043;-50
2022/07/15 08:42:35;;;;;;;24.45;3.03;;;;;;;47.06;14.83;98829.38;5072432;28;20050;-50
2022/07/15 08:45:01;;;;;;;25.13;3.72;;;;;;;46.89;14.38;98825.91;5070996;28;20497;-50
2022/07/15 08:47:30;;;;;;;11.00;3.25;;;;;;;46.69;14.43;98818.56;5072421;28;20103;-50
2022/07/15 08:49:57;;;;;;;11.05;2.75;;;;;;;46.73;14.68;98824.78;5071100;28;20482;-52
2022/07/15 08:52:26;;;;;;;17.10;3.50;;;;;;;46.72;14.60;98816.91;5072286;28;20052;-52
2022/07/15 08:54:52;;;;;;;13.43;3.17;;;;;;;46.83;14.62;98820.16;5072250;28;20036;-54
2022/07/15 08:57:19;;;;;;;11.02;2.00;;;;;;;46.97;14.03;98814.16;5072196;28;20032;-53
2022/07/15 08:59:47;;;;;;;7.97;2.17;;;;;;;47.33;14.02;98815.03;5072051;28;20083;-52
2022/07/15 09:02:14;;;;;;;6.97;2.55;;;;;;;47.71;13.34;98825.31;5071985;28;20082;-53
2022/07/15 09:05:17;;;;;;;3.08;1.42;;;;;;;48.01;13.54;98823.88;5071552;28;20024;-52
2022/07/15 09:08:04;;;;;;;17.02;3.28;;;;;;;47.70;13.58;98821.75;5072122;28;20414;-51
2022/07/15 09:10:51;;;;;;;5.80;1.98;;;;;;;47.44;13.56;98815.47;5072079;28;20032;-51
2022/07/15 09:13:38;;;;;;;13.98;2.65;;;;;;;47.52;13.31;98811.19;5072013;28;20024;-52
2022/07/15 09:16:13;;;;;;;6.13;2.45;;;;;;;47.40;13.62;98820.34;5071966;28;20025;-50
2022/07/15 09:18:43;;;;;;;10.80;1.58;;;;;;;47.16;13.29;98811.59;5071681;28;20059;-50
2022/07/15 09:21:23;;;;;;;8.52;1.83;;;;;;;47.02;13.36;98810.03;5071861;28;20024;-51
2022/07/15 09:23:50;;;;;;;6.88;1.77;;;;;;;47.06;13.12;98807.16;5071768;28;20029;-50
2022/07/15 09:26:24;;;;;;;5.82;1.70;;;;;;;46.81;13.35;98817.06;5053980;28;20044;-51
2022/07/15 09:28:50;;;;;;;14.48;2.30;;;;;;;46.98;13.31;98814.94;5071756;28;20036;-52
2022/07/15 09:34:20;;;;;;;7.53;1.83;;;;;;;48.00;12.47;98805.63;5071840;28;20077;-52
2022/07/15 09:36:52;;;;;;;4.38;1.70;;;;;;;47.99;12.64;98804.84;5053724;28;20094;-52
2022/07/15 09:39:23;;;;;;;7.88;2.10;;;;;;;47.75;13.14;98812.81;5071780;28;20039;-52
2022/07/15 09:41:49;;;;;;;4.70;1.45;;;;;;;47.74;12.73;98805.72;5071597;28;20032;-52
2022/07/15 09:44:15;;;;;;;6.13;1.50;;;;;;;47.90;12.57;98817.91;5071681;28;20070;-52
2022/07/15 09:47:01;;;;;;;8.40;1.55;;;;;;;47.95;12.79;98806.97;5071632;28;20025;-51
2022/07/15 09:49:27;;;;;;;7.55;1.73;;;;;;;47.61;12.65;98805.75;5053687;28;20032;-52
2022/07/15 09:51:54;;;;;;;12.52;1.85;;;;;;;47.44;12.92;98792.44;5071561;28;20024;-52
2022/07/15 09:54:22;;;;;;;5.70;1.65;;;;;;;47.33;12.96;98799.13;5053538;28;20032;-53
2022/07/15 09:56:49;;;;;;;11.80;1.70;;;;;;;47.13;12.92;98801.34;5071486;28;20033;-52
2022/07/15 09:59:16;;;;;;;9.13;2.45;;;;;;;46.95;13.31;98804.69;5053549;28;20493;-53
2022/07/15 10:01:43;;;;;;;9.38;2.20;;;;;;;46.75;13.32;98793.81;5071492;28;20485;-52
2022/07/15 10:04:10;;;;;;;11.05;2.15;;;;;;;46.76;13.17;98798.13;5053460;28;20017;-51
2022/07/15 10:06:40;;;;;;;10.18;1.77;;;;;;;46.62;13.35;98794.56;5071464;28;20036;-53
2022/07/15 10:09:07;;;;;;;10.25;2.00;;;;;;;46.60;13.20;98787.88;5053484;28;20509;-52
2022/07/15 10:11:39;;;;;;;7.38;1.55;;;;;;;46.59;13.05;98792.69;5071381;28;20056;-51
2022/07/15 10:14:46;;;;;;;6.38;1.88;;;;;;;46.28;13.57;98783.25;5053457;28;20032;-52
2022/07/15 10:17:55;;;;;;;8.32;1.80;;;;;;;46.44;13.25;98791.53;5074653;28;20039;-51
2022/07/15 10:20:58;;;;;;;6.70;1.40;;;;;;;46.46;13.06;98786.31;5055239;28;20063;-51
2022/07/15 10:23:48;;;;;;;5.37;1.67;;;;;;;46.23;13.46;98796.47;5055217;28;20041;-51
2022/07/15 10:26:55;;;;;;;7.50;1.67;;;;;;;46.19;13.74;98783.91;5037168;28;20486;-51
2022/07/15 10:29:21;;;;;;;13.02;1.70;;;;;;;46.33;13.71;98791.06;5055047;28;20509;-53
2022/07/15 10:31:59;;;;;;;5.13;1.50;;;;;;;46.14;13.41;98784.44;5055172;28;20436;-50
2022/07/15 10:34:33;;;;;;;3.55;1.10;;;;;;;45.55;13.45;98797.47;5037067;28;20433;-51
2022/07/15 10:37:03;;;;;;;10.43;1.80;;;;;;;45.33;13.52;98794.47;5036894;28;20401;-51
2022/07/15 10:39:55;;;;;;;7.50;1.70;;;;;;;45.63;13.59;98790.53;5054827;28;20036;-51
2022/07/15 10:42:22;;;;;;;6.23;1.97;;;;;;;45.74;13.69;98793.03;5054739;28;20505;-51
2022/07/15 10:45:02;;;;;;;11.23;1.95;;;;;;;45.63;13.48;98793.31;5036756;28;20558;-52
2022/07/15 10:47:28;;;;;;;10.52;2.03;;;;;;;45.42;13.46;98798.19;5054691;28;20029;-52
2022/07/15 10:49:54;;;;;;;12.90;1.95;;;;;;;44.88;13.83;98789.56;5054685;28;20025;-52
2022/07/15 10:52:27;;;;;;;14.07;1.90;;;;;;;44.87;13.43;98786.00;5054625;28;20478;-50
2022/07/15 10:54:55;;;;;;;10.68;1.90;;;;;;;44.72;13.82;98785.53;5036999;28;20025;-51
2022/07/15 10:57:44;;;;;;;10.73;2.15;;;;;;;44.76;14.14;98779.94;5054326;28;20075;-51
2022/07/15 11:00:15;;;;;;;17.85;2.10;;;;;;;44.80;13.98;98780.63;5054282;28;20029;-51
2022/07/15 11:03:07;;;;;;;9.85;1.98;;;;;;;44.58;13.77;98783.09;5054281;28;20021;-50
2022/07/15 11:05:34;;;;;;;8.57;1.60;;;;;;;44.05;14.06;98783.72;5036346;28;20072;-52
2022/07/15 11:08:00;;;;;;;8.95;1.92;;;;;;;44.02;13.74;98779.00;5036396;28;20025;-50
2022/07/15 11:10:26;;;;;;;11.02;2.00;;;;;;;44.04;13.70;98773.84;5054217;28;20071;-51
2022/07/15 11:12:52;;;;;;;4.95;1.33;;;;;;;43.82;13.39;98770.69;5036311;28;20449;-50
2022/07/15 11:15:21;;;;;;;13.10;1.73;;;;;;;44.00;13.43;98767.59;5054163;28;20037;-50
2022/07/15 11:17:50;;;;;;;9.80;1.92;;;;;;;44.24;13.89;98760.03;5054915;28;20071;-50
2022/07/15 11:20:25;;;;;;;8.18;1.40;;;;;;;44.73;13.76;98766.94;5074148;28;20053;-51
2022/07/15 11:22:55;;;;;;;4.35;1.60;;;;;;;44.58;13.67;98756.19;5056046;28;20037;-50
2022/07/15 11:25:27;;;;;;;7.15;1.48;;;;;;;44.25;14.23;98758.84;5074025;28;20070;-50
2022/07/15 11:28:13;;;;;;;3.33;1.40;;;;;;;44.28;14.27;98760.72;5055321;28;20055;-50
2022/07/15 11:30:53;;;;;;;12.55;1.75;;;;;;;44.18;14.67;98753.44;5073880;28;20111;-50
2022/07/15 11:33:25;;;;;;;13.07;1.83;;;;;;;44.17;14.74;98753.84;5073788;28;20048;-50
2022/07/15 11:35:57;;;;;;;12.90;1.60;;;;;;;43.82;14.40;98758.88;5073881;28;20115;-51
2022/07/15 11:38:27;;;;;;;9.23;1.70;;;;;;;43.26;14.11;98745.56;5073865;28;20091;-50
2022/07/15 11:46:47;;;;;;;4.80;1.45;;;;;;;43.19;14.31;98740.97;5073913;28;20074;-50